Página principal
METAR-TAF:

METAR-TAF

Aeroportos :

Kodiak, Alasca, Estados Unidos

latitude: 57-45N, longitude: 152-30W, altura: 22 m

Observação actual do tempo

O boletim foi feito há 28 minutos, às 11:53 UTC
Vento 9 kt de oes-noroeste
Temperatura 12°C
Humidade 67%
Pressão 1009 hPa
Visibilidade: 16.1 km
Céu limpo

METAR: PADQ 221153Z AUTO 30009KT 10SM CLR 12/06 A2981 RMK AO2 SLP094 70032 T01170061 10133 20094 58006 TSNO

Hora: 04:21 (12:21 UTC)

Previsão

O boletim foi feito há 57 minutos, às 11:24 UTC
Previsão válida de 22 às 12 UTC a 23 às 12 UTC
Vento 11 kt de noroeste
Visibilidade: 10 km
Nuvens dispersasa uma altura de 10000 ft
A partir de 22 às 1800 UTC
Vento 13 kt de noroeste
Visibilidade: 10 km
Nuvens dispersasa uma altura de 10000 ft
A partir de 23 às 0200 UTC
Vento 9 kt de oes-noroeste
Visibilidade: 10 km
Nuvens dispersasa uma altura de 10000 ft

TAF: PADQ 221124Z 2212/2312 31011KT P6SM SCT100 FM221800 32013KT P6SM SCT100 FM230200 30009KT P6SM SCT100

Observações e previsões do tempo de mais de 4000 aeroportos (mensagens METAR e TAF).

As estações disponíveis são os pontos amarelos e vermelhos sobre o mapa.

Mova o rato sobre o mapa para ver o nome da estação.

Depois clique no ponto para visualizar as observações e previsões meteorológicas.

Para alterar o mapa : clique nos botões verdes com uma cruz preta para aumentar o zoom; no botão verde com uma pitada de zoom; ou nas setas verdes para mapas adjacentes.


METAR-TAF: